createdAt,value
2018-06-23T00:00:22.587Z,3.00
2018-06-23T00:01:22.450Z,2.70
2018-06-23T00:02:22.324Z,3.00
2018-06-23T00:03:22.195Z,3.10
2018-06-23T00:04:22.068Z,2.70
2018-06-23T00:05:21.943Z,2.70
2018-06-23T00:06:21.816Z,2.70
2018-06-23T00:07:21.691Z,2.70
2018-06-23T00:08:21.563Z,2.50
2018-06-23T00:09:21.435Z,2.60
2018-06-23T00:10:21.310Z,2.60
2018-06-23T00:11:21.185Z,2.70
2018-06-23T00:12:21.053Z,2.60
2018-06-23T00:13:20.929Z,2.70
2018-06-23T00:14:20.800Z,2.70
2018-06-23T00:15:20.675Z,2.70
2018-06-23T00:16:20.547Z,2.70
2018-06-23T00:17:20.420Z,2.90
2018-06-23T00:18:20.292Z,2.70
2018-06-23T00:19:20.165Z,2.90
2018-06-23T00:20:20.038Z,2.90
2018-06-23T00:21:19.912Z,2.70
2018-06-23T00:22:19.785Z,2.80
2018-06-23T00:23:19.657Z,2.90
2018-06-23T00:24:19.528Z,2.90
2018-06-23T00:25:19.402Z,2.80
2018-06-23T00:26:19.274Z,2.80
2018-06-23T00:27:19.149Z,2.90
2018-06-23T00:28:19.023Z,2.60
2018-06-23T00:29:18.894Z,3.00
2018-06-23T00:30:18.767Z,2.90
2018-06-23T00:31:18.640Z,2.60
2018-06-23T00:32:18.513Z,2.60
2018-06-23T00:33:18.387Z,2.80
2018-06-23T00:34:18.258Z,2.70
2018-06-23T00:35:18.131Z,2.80
2018-06-23T00:36:18.003Z,2.50
2018-06-23T00:37:17.878Z,2.40
2018-06-23T00:38:17.750Z,2.80
2018-06-23T00:39:17.621Z,2.80
2018-06-23T00:40:17.495Z,2.80
2018-06-23T00:41:17.367Z,2.80
2018-06-23T00:42:17.240Z,2.80
2018-06-23T00:43:17.111Z,3.30
2018-06-23T00:44:16.985Z,2.70
2018-06-23T00:45:16.858Z,2.80
2018-06-23T00:46:16.741Z,2.70
2018-06-23T00:47:16.604Z,2.80
2018-06-23T00:48:16.477Z,3.00
2018-06-23T00:49:16.354Z,2.70
2018-06-23T00:50:16.224Z,3.10
2018-06-23T00:51:16.094Z,2.80
2018-06-23T00:52:15.967Z,2.90
2018-06-23T00:53:15.840Z,3.30
2018-06-23T00:54:15.717Z,2.70
2018-06-23T00:55:15.592Z,3.50
2018-06-23T00:56:15.458Z,3.00
2018-06-23T00:57:15.335Z,3.50
2018-06-23T00:58:15.203Z,3.00
2018-06-23T00:59:15.079Z,2.90
2018-06-23T01:00:14.948Z,3.00
2018-06-23T01:01:14.821Z,3.10
2018-06-23T01:02:14.695Z,2.90
2018-06-23T01:03:14.567Z,2.70
2018-06-23T01:04:14.442Z,2.70
2018-06-23T01:05:14.312Z,2.70
2018-06-23T01:06:14.211Z,3.00
2018-06-23T01:07:14.059Z,2.60
2018-06-23T01:08:13.929Z,2.90
2018-06-23T01:09:13.805Z,3.00
2018-06-23T01:10:13.677Z,3.00
2018-06-23T01:11:13.550Z,2.70
2018-06-23T01:12:13.423Z,3.00
2018-06-23T01:13:13.292Z,2.70
2018-06-23T01:14:13.167Z,2.90
2018-06-23T01:15:13.042Z,2.90
2018-06-23T01:16:12.911Z,2.70
2018-06-23T01:17:12.786Z,3.00
2018-06-23T01:18:12.658Z,2.90
2018-06-23T01:19:12.533Z,2.70
2018-06-23T01:20:12.405Z,2.90
2018-06-23T01:21:12.277Z,3.00
2018-06-23T01:22:12.149Z,2.80
2018-06-23T01:23:12.021Z,3.10
2018-06-23T01:24:11.893Z,2.80
2018-06-23T01:25:11.765Z,2.90
2018-06-23T01:26:11.637Z,2.90
2018-06-23T01:27:11.511Z,2.80
2018-06-23T01:28:11.383Z,3.10
2018-06-23T01:29:11.257Z,2.90
2018-06-23T01:30:11.131Z,2.80
2018-06-23T01:31:11.001Z,3.10
2018-06-23T01:32:10.872Z,3.00
2018-06-23T01:33:10.746Z,3.00
2018-06-23T01:34:10.626Z,3.10
2018-06-23T01:35:10.490Z,2.80
2018-06-23T01:36:10.365Z,2.80
2018-06-23T01:37:10.234Z,2.90
2018-06-23T01:38:10.107Z,2.70
2018-06-23T01:39:09.983Z,3.70
2018-06-23T01:40:09.852Z,2.80
2018-06-23T01:41:09.726Z,2.90
2018-06-23T01:42:09.600Z,3.10
2018-06-23T01:43:09.470Z,3.10
2018-06-23T01:44:09.342Z,3.10
2018-06-23T01:45:09.217Z,2.70
2018-06-23T01:46:09.088Z,2.70
2018-06-23T01:47:08.960Z,2.90
2018-06-23T01:48:08.832Z,2.80
2018-06-23T01:49:08.708Z,3.10
2018-06-23T01:50:08.577Z,3.20
2018-06-23T01:51:08.453Z,3.00
2018-06-23T01:52:08.323Z,3.10
2018-06-23T01:53:08.194Z,2.90
2018-06-23T01:54:08.070Z,3.30
2018-06-23T01:55:07.943Z,3.10
2018-06-23T01:56:07.814Z,3.00
2018-06-23T01:57:07.686Z,3.20
2018-06-23T01:58:07.560Z,3.10
2018-06-23T01:59:07.430Z,2.90
2018-06-23T02:00:07.301Z,2.70
2018-06-23T02:01:07.175Z,3.00
2018-06-23T02:02:07.051Z,3.00
2018-06-23T02:03:06.924Z,3.20
2018-06-23T02:04:06.799Z,2.90
2018-06-23T02:05:06.665Z,3.10
2018-06-23T02:06:06.538Z,2.80
2018-06-23T02:07:06.411Z,3.20
2018-06-23T02:08:06.286Z,3.30
2018-06-23T02:09:06.157Z,3.30
2018-06-23T02:10:06.028Z,3.20
2018-06-23T02:11:05.901Z,3.00
2018-06-23T02:12:05.773Z,3.00
2018-06-23T02:13:05.646Z,3.00
2018-06-23T02:14:05.517Z,3.00
2018-06-23T02:15:05.391Z,3.00
2018-06-23T02:16:05.262Z,3.10
2018-06-23T02:17:05.134Z,2.70
2018-06-23T02:18:05.011Z,2.80
2018-06-23T02:19:04.883Z,2.80
2018-06-23T02:20:04.754Z,2.70
2018-06-23T02:21:04.626Z,3.10
2018-06-23T02:22:04.499Z,2.80
2018-06-23T02:23:04.372Z,3.20
2018-06-23T02:24:04.246Z,2.80
2018-06-23T02:25:04.116Z,2.90
2018-06-23T02:26:03.995Z,2.90
2018-06-23T02:27:03.861Z,2.60
2018-06-23T02:28:03.734Z,2.80
2018-06-23T02:29:03.607Z,2.90
2018-06-23T02:30:03.483Z,3.00
2018-06-23T02:31:03.352Z,2.80
2018-06-23T02:32:03.225Z,2.90
2018-06-23T02:33:03.096Z,2.80
2018-06-23T02:34:02.969Z,2.80
2018-06-23T02:35:02.845Z,2.80
2018-06-23T02:36:02.715Z,2.90
2018-06-23T02:37:02.592Z,3.00
2018-06-23T02:38:02.465Z,2.90
2018-06-23T02:39:02.334Z,2.60
2018-06-23T02:40:02.207Z,2.80
2018-06-23T02:41:02.082Z,3.20
2018-06-23T02:42:01.954Z,3.10
2018-06-23T02:43:01.827Z,2.70
2018-06-23T02:44:01.700Z,2.90
2018-06-23T02:45:01.572Z,3.00
2018-06-23T02:46:01.448Z,3.10
2018-06-23T02:47:01.318Z,3.10
2018-06-23T02:48:01.189Z,2.90
2018-06-23T02:49:01.066Z,3.30
2018-06-23T02:50:00.934Z,3.40
2018-06-23T02:51:00.805Z,2.60
2018-06-23T02:52:00.678Z,3.10
2018-06-23T02:53:00.552Z,3.00
2018-06-23T02:54:00.423Z,3.30
2018-06-23T02:55:00.294Z,3.20
2018-06-23T02:56:00.167Z,3.20
2018-06-23T02:57:00.047Z,3.40
2018-06-23T02:57:59.914Z,2.90
2018-06-23T02:58:59.789Z,3.10
2018-06-23T02:59:59.659Z,3.00
2018-06-23T03:00:59.532Z,3.60
2018-06-23T03:01:59.401Z,3.60
2018-06-23T03:02:59.275Z,3.30
2018-06-23T03:03:59.148Z,3.50
2018-06-23T03:04:59.020Z,3.10
2018-06-23T03:05:58.889Z,3.40
2018-06-23T03:06:58.764Z,3.40
2018-06-23T03:07:58.633Z,3.20
2018-06-23T03:08:58.506Z,3.10
2018-06-23T03:09:58.379Z,2.90
2018-06-23T03:10:58.249Z,3.20
2018-06-23T03:11:58.120Z,3.30
2018-06-23T03:12:57.992Z,3.30
2018-06-23T03:13:57.865Z,3.30
2018-06-23T03:14:57.739Z,2.80
2018-06-23T03:15:57.612Z,2.90
2018-06-23T03:16:57.485Z,3.10
2018-06-23T03:17:57.352Z,2.70
2018-06-23T03:18:57.224Z,3.00
2018-06-23T03:19:57.096Z,3.10
2018-06-23T03:20:56.969Z,3.10
2018-06-23T03:21:56.840Z,3.50
2018-06-23T03:22:56.712Z,3.00
2018-06-23T03:23:56.581Z,3.00
2018-06-23T03:24:56.455Z,3.20
2018-06-23T03:25:56.326Z,2.90
2018-06-23T03:26:56.199Z,2.70
2018-06-23T03:27:56.071Z,3.30
2018-06-23T03:28:55.944Z,2.80
2018-06-23T03:29:55.828Z,2.70
2018-06-23T03:30:55.699Z,3.00
2018-06-23T03:31:55.559Z,2.90
2018-06-23T03:32:55.444Z,3.00
2018-06-23T03:33:55.301Z,3.30
2018-06-23T03:34:55.171Z,2.70
2018-06-23T03:35:55.050Z,3.20
2018-06-23T03:36:54.916Z,3.30
2018-06-23T03:37:54.788Z,3.10
2018-06-23T03:38:54.661Z,3.10
2018-06-23T03:39:54.530Z,3.40
2018-06-23T03:40:54.401Z,3.20
2018-06-23T03:41:54.275Z,3.20
2018-06-23T03:42:54.148Z,3.50
2018-06-23T03:43:54.104Z,3.30
2018-06-23T03:44:53.892Z,2.90
2018-06-23T03:45:53.763Z,3.10
2018-06-23T03:46:53.637Z,3.10
2018-06-23T03:47:53.539Z,3.20
2018-06-23T03:48:53.412Z,3.20
2018-06-23T03:49:53.250Z,3.30
2018-06-23T03:50:53.123Z,3.40
2018-06-23T03:51:52.996Z,3.30
2018-06-23T03:52:52.868Z,3.40
2018-06-23T03:53:52.738Z,3.00
2018-06-23T03:54:52.612Z,3.00
2018-06-23T03:55:52.482Z,3.20
2018-06-23T03:56:52.353Z,3.50
2018-06-23T03:57:52.225Z,3.40
2018-06-23T03:58:52.095Z,3.60
2018-06-23T03:59:51.968Z,3.60
2018-06-23T04:00:51.841Z,3.00
2018-06-23T04:01:51.712Z,3.20
2018-06-23T04:02:51.583Z,3.20
2018-06-23T04:03:51.454Z,3.20
2018-06-23T04:04:51.326Z,3.30
2018-06-23T04:05:51.197Z,3.20
2018-06-23T04:06:51.068Z,3.40
2018-06-23T04:07:50.940Z,3.20
2018-06-23T04:08:50.812Z,3.30
2018-06-23T04:09:50.686Z,3.20
2018-06-23T04:10:50.560Z,3.10
2018-06-23T04:11:50.428Z,2.90
2018-06-23T04:12:50.299Z,3.10
2018-06-23T04:13:50.173Z,3.00
2018-06-23T04:14:50.048Z,2.80
2018-06-23T04:15:49.915Z,3.30
2018-06-23T04:16:49.839Z,3.40
2018-06-23T04:17:49.659Z,3.20
2018-06-23T04:18:49.533Z,3.50
2018-06-23T04:19:49.403Z,3.50
2018-06-23T04:20:49.277Z,3.50
2018-06-23T04:21:49.148Z,3.50
2018-06-23T04:22:49.019Z,3.80
2018-06-23T04:23:48.892Z,3.40
2018-06-23T04:24:48.766Z,3.50
2018-06-23T04:25:48.636Z,3.30
2018-06-23T04:26:48.509Z,3.30
2018-06-23T04:27:48.378Z,3.10
2018-06-23T04:28:48.256Z,3.60
2018-06-23T04:29:48.127Z,2.90
2018-06-23T04:30:47.998Z,3.30
2018-06-23T04:31:47.865Z,3.20
2018-06-23T04:32:47.740Z,3.10
2018-06-23T04:33:47.610Z,3.30
2018-06-23T04:34:47.487Z,3.60
2018-06-23T04:35:47.358Z,3.20
2018-06-23T04:36:47.227Z,3.10
2018-06-23T04:37:47.101Z,3.10
2018-06-23T04:38:46.971Z,2.80
2018-06-23T04:39:46.846Z,3.20
2018-06-23T04:40:46.718Z,3.50
2018-06-23T04:41:46.591Z,3.10
2018-06-23T04:42:46.465Z,3.00
2018-06-23T04:43:46.337Z,3.10
2018-06-23T04:44:46.209Z,3.10
2018-06-23T04:45:46.080Z,3.10
2018-06-23T04:46:45.953Z,2.90
2018-06-23T04:47:45.823Z,3.00
2018-06-23T04:48:45.700Z,2.60
2018-06-23T04:49:45.571Z,2.70
2018-06-23T04:50:45.446Z,2.70
2018-06-23T04:51:45.318Z,2.90
2018-06-23T04:52:45.189Z,2.80
2018-06-23T04:53:45.066Z,2.90
2018-06-23T04:54:44.935Z,3.10
2018-06-23T04:55:44.807Z,3.00
2018-06-23T04:56:44.730Z,2.80
2018-06-23T04:57:44.555Z,2.70
2018-06-23T04:58:44.427Z,2.50
2018-06-23T04:59:44.301Z,2.80
2018-06-23T05:00:44.175Z,2.50
2018-06-23T05:01:44.047Z,2.60
2018-06-23T05:02:43.923Z,2.60
2018-06-23T05:03:43.800Z,2.50
2018-06-23T05:04:43.666Z,2.70
2018-06-23T05:05:43.543Z,2.60
2018-06-23T05:06:43.415Z,2.70
2018-06-23T05:07:43.286Z,2.80
2018-06-23T05:08:43.161Z,2.70
2018-06-23T05:09:43.037Z,2.80
2018-06-23T05:10:42.909Z,2.70
2018-06-23T05:11:42.780Z,2.50
2018-06-23T05:12:42.655Z,2.60
2018-06-23T05:13:42.529Z,2.70
2018-06-23T05:14:42.405Z,2.50
2018-06-23T05:15:42.278Z,2.70
2018-06-23T05:16:42.153Z,2.50
2018-06-23T05:17:42.024Z,2.60
2018-06-23T05:18:41.899Z,2.50
2018-06-23T05:19:41.772Z,2.50
2018-06-23T05:20:41.648Z,2.40
2018-06-23T05:21:41.519Z,2.30
2018-06-23T05:22:41.395Z,2.20
2018-06-23T05:23:41.267Z,2.40
2018-06-23T05:24:41.138Z,2.40
2018-06-23T05:25:41.014Z,2.50
2018-06-23T05:26:40.891Z,2.30
2018-06-23T05:27:40.764Z,2.60
2018-06-23T05:28:40.638Z,2.40
2018-06-23T05:29:40.513Z,2.80
2018-06-23T05:30:40.384Z,2.40
2018-06-23T05:31:40.290Z,2.40
2018-06-23T05:32:40.134Z,2.50
2018-06-23T05:33:40.006Z,2.50
2018-06-23T05:34:39.882Z,2.50
2018-06-23T05:35:39.756Z,2.60
2018-06-23T05:36:39.643Z,2.10
2018-06-23T05:37:39.556Z,2.20
2018-06-23T05:38:39.377Z,2.10
2018-06-23T05:39:39.251Z,2.00
2018-06-23T05:40:39.125Z,1.90
2018-06-23T05:41:39.000Z,2.60
2018-06-23T05:42:38.875Z,2.20
2018-06-23T05:43:38.747Z,2.10
2018-06-23T05:44:38.662Z,2.00
2018-06-23T05:45:38.499Z,2.20
2018-06-23T05:46:38.372Z,2.20
2018-06-23T05:47:38.246Z,2.20
2018-06-23T05:48:38.116Z,2.10
2018-06-23T05:49:37.991Z,2.30
2018-06-23T05:50:37.868Z,2.10
2018-06-23T05:51:37.766Z,2.10
2018-06-23T05:52:37.619Z,2.00
2018-06-23T05:53:37.492Z,1.90
2018-06-23T05:54:44.496Z,2.30
2018-06-23T05:56:30.065Z,2.10
2018-06-23T05:57:29.892Z,2.10
2018-06-23T05:59:22.572Z,2.30
2018-06-23T06:00:22.437Z,2.60
2018-06-23T06:02:15.170Z,2.00
2018-06-23T06:03:14.978Z,2.00
2018-06-23T06:05:22.764Z,2.10
2018-06-23T06:06:22.629Z,2.40
2018-06-23T06:08:15.352Z,2.10
2018-06-23T06:09:15.172Z,2.20
2018-06-23T06:11:07.847Z,1.90
2018-06-23T06:12:07.844Z,2.40
2018-06-23T06:14:00.423Z,2.30
2018-06-23T06:15:00.259Z,2.20
2018-06-23T06:16:53.005Z,2.00
2018-06-23T06:17:52.787Z,2.20
2018-06-23T06:20:01.666Z,2.20
2018-06-23T06:21:01.452Z,2.30
2018-06-23T06:23:09.475Z,2.10
2018-06-23T06:24:09.337Z,2.00
2018-06-23T06:26:02.081Z,2.40
2018-06-23T06:27:01.911Z,2.40
2018-06-23T06:28:01.784Z,2.20
2018-06-23T06:29:01.657Z,2.10
2018-06-23T06:30:01.536Z,2.40
2018-06-23T06:31:01.472Z,2.10
2018-06-23T06:32:01.305Z,2.00
2018-06-23T06:33:08.417Z,2.40
2018-06-23T06:35:10.638Z,2.10
2018-06-23T06:36:10.468Z,2.00
2018-06-23T06:38:03.277Z,2.10
2018-06-23T06:39:02.999Z,2.30
2018-06-23T06:40:56.577Z,1.90
2018-06-23T06:41:56.440Z,2.10
2018-06-23T06:44:04.192Z,2.80
2018-06-23T06:45:04.016Z,2.40
2018-06-23T06:46:56.757Z,2.30
2018-06-23T06:47:56.585Z,2.30
2018-06-23T06:49:49.259Z,2.30
2018-06-23T06:50:49.130Z,2.30
2018-06-23T06:51:49.010Z,2.60
2018-06-23T06:52:48.887Z,2.40
2018-06-23T06:53:48.761Z,2.20
2018-06-23T06:54:48.627Z,2.40
2018-06-23T06:55:48.507Z,2.40
2018-06-23T06:56:48.379Z,2.40
2018-06-23T06:57:48.255Z,2.50
2018-06-23T06:58:48.131Z,2.30
2018-06-23T06:59:48.013Z,2.20
2018-06-23T07:00:47.881Z,2.60
2018-06-23T07:01:47.768Z,2.30
2018-06-23T07:02:47.635Z,2.10
2018-06-23T07:03:47.510Z,2.40
2018-06-23T07:04:47.389Z,2.20
2018-06-23T07:05:47.266Z,2.10
2018-06-23T07:06:47.137Z,2.40
2018-06-23T07:07:47.094Z,2.30
2018-06-23T07:08:46.931Z,2.30
2018-06-23T07:09:56.312Z,2.20
2018-06-23T07:11:49.349Z,2.10
2018-06-23T07:14:24.910Z,2.30
2018-06-23T07:15:24.581Z,2.10
2018-06-23T07:16:24.455Z,2.30
2018-06-23T07:17:24.334Z,2.10
2018-06-23T07:18:24.206Z,2.20
2018-06-23T07:19:24.084Z,2.20
2018-06-23T07:20:23.962Z,2.10
2018-06-23T07:21:23.839Z,2.00
2018-06-23T07:22:23.711Z,2.20
2018-06-23T07:23:23.590Z,2.00
2018-06-23T07:24:23.466Z,2.00
2018-06-23T07:25:23.346Z,2.50
2018-06-23T07:26:23.218Z,2.00
2018-06-23T07:27:23.144Z,2.20
2018-06-23T07:28:22.972Z,2.10
2018-06-23T07:29:22.855Z,2.10
2018-06-23T07:30:22.726Z,2.00
2018-06-23T07:31:22.605Z,2.00
2018-06-23T07:32:22.481Z,2.20
2018-06-23T07:33:22.360Z,2.10
2018-06-23T07:34:22.271Z,2.00
2018-06-23T07:35:22.113Z,2.00
2018-06-23T07:36:21.991Z,2.00
2018-06-23T07:37:21.865Z,2.10
2018-06-23T07:38:21.740Z,1.90
2018-06-23T07:39:21.618Z,1.90
2018-06-23T07:40:21.494Z,2.20
2018-06-23T07:41:21.372Z,1.90
2018-06-23T07:42:21.247Z,2.20
2018-06-23T07:43:21.126Z,2.00
2018-06-23T07:44:21.000Z,1.80
2018-06-23T07:45:20.880Z,2.00
2018-06-23T07:46:20.755Z,2.00
2018-06-23T07:47:20.632Z,2.00
2018-06-23T07:48:20.512Z,1.80
2018-06-23T07:49:20.388Z,2.00
2018-06-23T07:50:20.263Z,1.90
2018-06-23T07:51:20.143Z,1.90
2018-06-23T07:52:20.019Z,2.20
2018-06-23T07:53:19.946Z,1.90
2018-06-23T07:54:19.773Z,1.80
2018-06-23T07:55:19.655Z,1.80
2018-06-23T07:56:19.659Z,1.90
2018-06-23T07:57:19.406Z,1.90
2018-06-23T07:58:19.278Z,2.10
2018-06-23T07:59:19.161Z,2.00
2018-06-23T08:00:19.032Z,2.10
2018-06-23T08:01:18.912Z,2.10
2018-06-23T08:02:18.787Z,2.10
2018-06-23T08:03:18.665Z,1.80
2018-06-23T08:04:18.541Z,2.00
2018-06-23T08:05:18.421Z,1.90
2018-06-23T08:06:18.293Z,1.80
2018-06-23T08:07:18.172Z,1.90
2018-06-23T08:08:18.053Z,2.00
2018-06-23T08:09:17.925Z,2.00
2018-06-23T08:10:17.808Z,1.90
2018-06-23T08:11:17.683Z,1.90
2018-06-23T08:12:17.561Z,1.70
2018-06-23T08:13:17.438Z,1.60
2018-06-23T08:14:17.314Z,1.90
2018-06-23T08:15:17.189Z,1.60
2018-06-23T08:16:17.068Z,2.00
2018-06-23T08:17:16.947Z,1.60
2018-06-23T08:18:16.822Z,1.60
2018-06-23T08:19:16.699Z,1.90
2018-06-23T08:20:16.580Z,1.70
2018-06-23T08:21:16.455Z,1.70
2018-06-23T08:22:16.332Z,1.60
2018-06-23T08:23:16.218Z,1.90
2018-06-23T08:24:16.086Z,1.50
2018-06-23T08:25:15.965Z,1.70
2018-06-23T08:26:15.875Z,1.70
2018-06-23T08:27:15.721Z,1.50
2018-06-23T08:28:15.598Z,1.70
2018-06-23T08:29:15.478Z,1.70
2018-06-23T08:30:15.356Z,1.60
2018-06-23T08:31:15.235Z,1.80
2018-06-23T08:32:15.113Z,1.50
2018-06-23T08:33:14.995Z,1.50
2018-06-23T08:34:14.866Z,1.60
2018-06-23T08:35:14.745Z,1.70
2018-06-23T08:36:14.632Z,1.50
2018-06-23T08:37:14.506Z,1.50
2018-06-23T08:38:14.405Z,1.40
2018-06-23T08:39:14.262Z,1.50
2018-06-23T08:40:14.139Z,1.50
2018-06-23T08:41:14.015Z,1.60
2018-06-23T08:42:13.892Z,1.50
2018-06-23T08:43:13.770Z,1.70
2018-06-23T08:44:13.649Z,1.50
2018-06-23T08:45:13.532Z,1.80
2018-06-23T08:46:13.406Z,1.50
2018-06-23T08:47:13.286Z,1.40
2018-06-23T08:48:13.161Z,1.70
2018-06-23T08:49:13.072Z,1.40
2018-06-23T08:50:12.917Z,1.50
2018-06-23T08:51:12.800Z,1.50
2018-06-23T08:52:12.678Z,1.60
2018-06-23T08:53:12.557Z,1.50
2018-06-23T08:54:12.435Z,1.50
2018-06-23T08:55:12.312Z,1.50
2018-06-23T08:56:12.192Z,1.50
2018-06-23T08:57:12.068Z,1.30
2018-06-23T08:58:11.951Z,1.40
2018-06-23T08:59:11.826Z,1.40
2018-06-23T09:00:11.705Z,1.30
2018-06-23T09:01:11.580Z,1.50
2018-06-23T09:02:11.459Z,1.50
2018-06-23T09:03:11.338Z,1.40
2018-06-23T09:04:11.228Z,1.50
2018-06-23T09:05:11.127Z,1.30
2018-06-23T09:06:10.975Z,1.30
2018-06-23T09:07:10.857Z,1.20
2018-06-23T09:08:10.732Z,1.40
2018-06-23T09:09:10.612Z,1.40
2018-06-23T09:10:10.489Z,1.40
2018-06-23T09:11:10.375Z,1.20
2018-06-23T09:12:10.253Z,1.40
2018-06-23T09:13:10.165Z,1.40
2018-06-23T09:14:10.005Z,1.40
2018-06-23T09:15:09.885Z,1.40
2018-06-23T09:16:09.765Z,1.40
2018-06-23T09:17:09.647Z,1.30
2018-06-23T09:18:09.526Z,1.30
2018-06-23T09:19:09.402Z,1.30
2018-06-23T09:20:09.280Z,1.30
2018-06-23T09:21:09.162Z,1.20
2018-06-23T09:22:09.041Z,1.40
2018-06-23T09:23:08.917Z,1.60
2018-06-23T09:24:08.798Z,1.30
2018-06-23T09:25:08.680Z,1.50
2018-06-23T09:26:08.556Z,1.40
2018-06-23T09:27:08.437Z,1.40
2018-06-23T09:28:08.317Z,1.30
2018-06-23T09:29:08.197Z,1.20
2018-06-23T09:30:08.074Z,1.40
2018-06-23T09:31:07.953Z,1.30
2018-06-23T09:32:07.835Z,1.30
2018-06-23T09:33:07.712Z,1.30
2018-06-23T09:34:07.591Z,1.30
2018-06-23T09:35:07.493Z,1.30
2018-06-23T09:36:07.354Z,1.10
2018-06-23T09:37:07.243Z,1.30
2018-06-23T09:38:07.109Z,1.20
2018-06-23T09:39:06.988Z,1.30
2018-06-23T09:40:06.875Z,1.10
2018-06-23T09:41:06.751Z,1.10
2018-06-23T09:42:06.628Z,1.40
2018-06-23T09:43:06.507Z,1.10
2018-06-23T09:44:06.388Z,1.10
2018-06-23T09:45:06.268Z,1.20
2018-06-23T09:46:06.171Z,1.20
2018-06-23T09:47:06.026Z,1.00
2018-06-23T09:48:05.907Z,1.10
2018-06-23T09:49:05.790Z,1.00
2018-06-23T09:50:05.680Z,1.10
2018-06-23T09:51:05.552Z,1.20
2018-06-23T09:52:05.426Z,1.30
2018-06-23T09:53:05.307Z,1.40
2018-06-23T09:54:05.186Z,1.40
2018-06-23T09:55:05.065Z,1.10
2018-06-23T09:56:04.945Z,1.30
2018-06-23T09:57:05.114Z,1.10
2018-06-23T09:58:04.789Z,1.00
2018-06-23T09:59:04.668Z,1.40
2018-06-23T10:00:04.465Z,1.40
2018-06-23T10:01:04.347Z,1.20
2018-06-23T10:02:04.226Z,1.00
2018-06-23T10:03:04.107Z,1.30
2018-06-23T10:04:03.994Z,1.40
2018-06-23T10:05:03.865Z,1.20
2018-06-23T10:06:03.752Z,1.20
2018-06-23T10:07:03.626Z,1.20
2018-06-23T10:08:03.559Z,1.00
2018-06-23T10:09:03.386Z,1.20
2018-06-23T10:10:03.271Z,1.20
2018-06-23T10:11:03.145Z,1.30
2018-06-23T10:12:03.028Z,1.00
2018-06-23T10:13:03.181Z,1.50
2018-06-23T10:14:02.788Z,1.20
2018-06-23T10:15:02.666Z,1.20
2018-06-23T10:16:02.549Z,1.20
2018-06-23T10:17:02.427Z,1.40
2018-06-23T10:18:02.318Z,1.40
2018-06-23T10:19:02.191Z,1.20
2018-06-23T10:20:02.068Z,1.30
2018-06-23T10:21:01.948Z,1.20
2018-06-23T10:22:01.830Z,1.30
2018-06-23T10:23:02.300Z,1.20
2018-06-23T10:24:01.591Z,1.20
2018-06-23T10:25:01.471Z,1.40
2018-06-23T10:26:01.352Z,1.30
2018-06-23T10:27:01.236Z,1.20
2018-06-23T10:28:01.110Z,1.00
2018-06-23T10:29:00.992Z,1.50
2018-06-23T10:30:00.897Z,1.50
2018-06-23T10:31:00.754Z,1.30
2018-06-23T10:32:00.634Z,1.20
2018-06-23T10:33:00.515Z,1.20
2018-06-23T10:34:00.396Z,1.30
2018-06-23T10:35:00.275Z,1.80
2018-06-23T10:36:00.156Z,3.70
2018-06-23T10:37:00.061Z,1.60
2018-06-23T10:37:59.945Z,1.30
2018-06-23T10:38:59.800Z,2.50
2018-06-23T10:39:59.738Z,2.20
2018-06-23T10:40:59.565Z,1.40
2018-06-23T10:41:59.443Z,1.40
2018-06-23T10:42:59.322Z,1.20
2018-06-23T10:43:59.203Z,1.40
2018-06-23T10:44:59.089Z,1.40
2018-06-23T10:45:58.966Z,1.10
2018-06-23T10:46:58.847Z,1.20
2018-06-23T10:47:58.728Z,1.10
2018-06-23T10:48:58.611Z,1.20
2018-06-23T10:49:58.490Z,1.20
2018-06-23T10:50:58.380Z,1.00
2018-06-23T10:51:58.256Z,1.30
2018-06-23T10:52:58.140Z,1.30
2018-06-23T10:53:58.017Z,1.20
2018-06-23T10:54:57.900Z,1.30
2018-06-23T10:55:57.783Z,1.20
2018-06-23T10:56:57.665Z,1.30
2018-06-23T10:57:57.545Z,1.30
2018-06-23T10:58:57.428Z,1.30
2018-06-23T10:59:57.310Z,1.30
2018-06-23T11:00:57.190Z,1.20
2018-06-23T11:01:57.072Z,1.20
2018-06-23T11:02:56.953Z,1.30
2018-06-23T11:03:56.839Z,1.30
2018-06-23T11:04:56.888Z,1.10
2018-06-23T11:05:56.602Z,1.20
2018-06-23T11:06:56.489Z,1.20
2018-06-23T11:07:56.366Z,1.20
2018-06-23T11:08:56.248Z,1.40
2018-06-23T11:09:56.131Z,1.20
2018-06-23T11:10:56.013Z,1.10
2018-06-23T11:11:55.897Z,1.20
2018-06-23T11:12:55.780Z,1.20
2018-06-23T11:13:55.662Z,1.20
2018-06-23T11:14:55.543Z,1.10
2018-06-23T11:15:55.428Z,1.20
2018-06-23T11:16:55.311Z,1.10
2018-06-23T11:17:55.193Z,1.30
2018-06-23T11:18:55.076Z,1.20
2018-06-23T11:19:54.962Z,1.20
2018-06-23T11:20:54.839Z,1.20
2018-06-23T11:21:54.723Z,1.20
2018-06-23T11:22:54.608Z,1.20
2018-06-23T11:23:54.490Z,1.30
2018-06-23T11:24:54.374Z,1.20
2018-06-23T11:25:54.257Z,1.10
2018-06-23T11:26:54.141Z,1.20
2018-06-23T11:27:54.023Z,1.10
2018-06-23T11:28:53.906Z,1.30
2018-06-23T11:29:53.792Z,1.10
2018-06-23T11:30:53.680Z,1.00
2018-06-23T11:31:53.557Z,1.20
2018-06-23T11:32:53.441Z,1.10
2018-06-23T11:33:53.325Z,1.20
2018-06-23T11:34:53.210Z,1.20
2018-06-23T11:35:53.091Z,1.10
2018-06-23T11:36:52.974Z,1.10
2018-06-23T11:37:52.857Z,1.20
2018-06-23T11:38:52.743Z,1.20
2018-06-23T11:39:52.633Z,1.10
2018-06-23T11:40:52.509Z,1.00
2018-06-23T11:41:52.393Z,1.10
2018-06-23T11:42:52.281Z,1.00
2018-06-23T11:43:52.159Z,1.00
2018-06-23T11:44:52.045Z,1.10
2018-06-23T11:45:51.926Z,1.10
2018-06-23T11:46:51.810Z,1.10
2018-06-23T11:47:51.696Z,1.20
2018-06-23T11:48:51.578Z,1.10
2018-06-23T11:49:51.462Z,1.20
2018-06-23T11:50:51.347Z,1.20
2018-06-23T11:51:51.230Z,1.00
2018-06-23T11:52:51.115Z,1.10
2018-06-23T11:53:50.996Z,1.20
2018-06-23T11:54:50.885Z,1.10
2018-06-23T11:55:50.770Z,1.20
2018-06-23T11:56:50.649Z,1.10
2018-06-23T11:57:50.536Z,1.20
2018-06-23T11:58:50.427Z,1.10
2018-06-23T11:59:50.305Z,1.00
2018-06-23T12:00:50.191Z,1.10
2018-06-23T12:01:50.139Z,1.10
2018-06-23T12:02:49.956Z,1.00
2018-06-23T12:03:49.840Z,1.00
2018-06-23T12:04:49.726Z,1.10
2018-06-23T12:05:49.611Z,1.10
2018-06-23T12:06:49.496Z,1.20
2018-06-23T12:07:49.382Z,1.10
2018-06-23T12:08:49.266Z,1.10
2018-06-23T12:09:49.147Z,1.00
2018-06-23T12:10:49.040Z,1.10
2018-06-23T12:11:48.919Z,1.20
2018-06-23T12:12:48.802Z,1.20
2018-06-23T12:13:48.688Z,1.10
2018-06-23T12:14:48.574Z,1.20
2018-06-23T12:15:48.459Z,1.10
2018-06-23T12:16:48.343Z,1.00
2018-06-23T12:17:48.232Z,1.00
2018-06-23T12:18:48.112Z,1.10
2018-06-23T12:19:48.000Z,1.10
2018-06-23T12:20:47.883Z,1.10
2018-06-23T12:21:47.773Z,1.00
2018-06-23T12:22:47.654Z,1.00
2018-06-23T12:23:47.539Z,1.00
2018-06-23T12:24:47.425Z,1.00
2018-06-23T12:25:47.309Z,1.00
2018-06-23T12:26:47.200Z,0.90
2018-06-23T12:27:47.083Z,1.00
2018-06-23T12:28:46.968Z,1.10
2018-06-23T12:29:46.853Z,1.10
2018-06-23T12:30:46.740Z,1.00
2018-06-23T12:31:46.632Z,1.20
2018-06-23T12:32:46.510Z,1.00
2018-06-23T12:33:46.395Z,0.90
2018-06-23T12:34:46.284Z,1.00
2018-06-23T12:35:46.167Z,1.10
2018-06-23T12:36:46.052Z,1.00
2018-06-23T12:37:45.937Z,1.20
2018-06-23T12:38:45.825Z,1.00
2018-06-23T12:39:45.712Z,0.90
2018-06-23T12:40:45.594Z,1.00
2018-06-23T12:41:45.506Z,0.90
2018-06-23T12:42:45.366Z,1.00
2018-06-23T12:43:45.253Z,1.00
2018-06-23T12:44:45.136Z,1.00
2018-06-23T12:45:45.024Z,0.90
2018-06-23T12:46:44.912Z,0.90
2018-06-23T12:47:44.795Z,1.00
2018-06-23T12:48:44.682Z,0.90
2018-06-23T12:49:44.566Z,1.00
2018-06-23T12:50:44.451Z,0.90
2018-06-23T12:51:44.341Z,1.10
2018-06-23T12:52:44.227Z,1.10
2018-06-23T12:53:44.114Z,1.10
2018-06-23T12:54:44.000Z,1.10
2018-06-23T12:55:43.881Z,1.10
2018-06-23T12:56:43.766Z,1.10
2018-06-23T12:57:43.653Z,1.10
2018-06-23T12:58:43.535Z,1.10
2018-06-23T12:59:43.422Z,1.10
2018-06-23T13:00:43.307Z,1.20
2018-06-23T13:01:43.194Z,1.10
2018-06-23T13:02:43.081Z,1.10
2018-06-23T13:03:43.018Z,1.10
2018-06-23T13:04:42.866Z,1.00
2018-06-23T13:05:42.746Z,1.10
2018-06-23T13:06:42.628Z,1.10
2018-06-23T13:07:42.516Z,1.10
2018-06-23T13:08:42.404Z,1.00
2018-06-23T13:09:42.292Z,1.00
2018-06-23T13:10:42.181Z,1.30
2018-06-23T13:11:42.072Z,1.10
2018-06-23T13:12:41.965Z,1.10
2018-06-23T13:13:41.858Z,1.10
2018-06-23T13:14:41.742Z,1.00
2018-06-23T13:15:41.636Z,1.10
2018-06-23T13:16:41.524Z,1.20
2018-06-23T13:17:41.416Z,1.00
2018-06-23T13:18:41.309Z,1.20
2018-06-23T13:19:41.198Z,1.10
2018-06-23T13:20:41.089Z,1.10
2018-06-23T13:21:40.983Z,0.90
2018-06-23T13:22:40.874Z,1.00
2018-06-23T13:23:40.767Z,1.00
2018-06-23T13:24:40.659Z,1.10
2018-06-23T13:25:40.551Z,1.20
2018-06-23T13:26:40.446Z,1.00
2018-06-23T13:27:40.339Z,1.00
2018-06-23T13:28:40.232Z,0.90
2018-06-23T13:29:40.123Z,1.00
2018-06-23T13:30:40.021Z,1.10
2018-06-23T13:31:39.913Z,1.10
2018-06-23T13:32:39.806Z,1.20
2018-06-23T13:33:39.695Z,1.30
2018-06-23T13:34:39.591Z,1.10
2018-06-23T13:35:39.481Z,1.20